Time;durP1;ratioP1;P1;durP2;ratioP2;P2;SDS_P1;SDS_P2;PMS_P1;PMS_P2;Temp;Humidity;BMP_temperature;BMP_pressure;BME280_temperature;BME280_humidity;BME280_pressure;Samples;Min_cycle;Max_cycle;Signal;HPM_P1;HPM_P2
2023/03/01 00:01:09;;;;;;;7.15;5.43;;;;;;;;;;5051490;28;20633;-50
2023/03/01 00:03:35;;;;;;;6.32;5.32;;;;;;;;;;5048692;28;20809;-50
2023/03/01 00:06:02;;;;;;;6.57;5.05;;;;;;;;;;5045378;28;20232;-50
2023/03/01 00:08:29;;;;;;;6.47;5.30;;;;;;;;;;5051185;28;20187;-50
2023/03/01 00:11:01;;;;;;;8.40;5.82;;;;;;;;;;5042023;28;20520;-50
2023/03/01 00:13:27;;;;;;;6.20;5.20;;;;;;;;;;5062097;28;20271;-50
2023/03/01 00:15:53;;;;;;;7.30;5.63;;;;;;;;;;5035482;28;20183;-50
2023/03/01 00:18:19;;;;;;;7.47;5.88;;;;;;;;;;5056444;28;20178;-50
2023/03/01 00:20:55;;;;;;;6.78;5.22;;;;;;;;;;5045858;28;20528;-50
2023/03/01 00:23:22;;;;;;;7.28;5.57;;;;;;;;;;5052403;28;20270;-50
2023/03/01 00:25:48;;;;;;;5.97;5.30;;;;;;;;;;5056118;28;20213;-50
2023/03/01 00:28:14;;;;;;;6.85;5.55;;;;;;;;;;5048581;28;20601;-50
2023/03/01 00:30:40;;;;;;;7.93;5.38;;;;;;;;;;5072147;28;20233;-50
2023/03/01 00:33:06;;;;;;;7.28;5.53;;;;;;;;;;5040509;28;20219;-50
2023/03/01 00:35:34;;;;;;;6.00;5.40;;;;;;;;;;5042802;28;20184;-50
2023/03/01 00:38:01;;;;;;;6.65;5.60;;;;;;;;;;5061683;28;20240;-50
2023/03/01 00:40:27;;;;;;;6.20;5.30;;;;;;;;;;5038600;28;20819;-50
2023/03/01 00:42:53;;;;;;;7.65;5.60;;;;;;;;;;5073872;28;20193;-50
2023/03/01 00:45:19;;;;;;;6.40;5.38;;;;;;;;;;5050120;28;20191;-50
2023/03/01 00:47:45;;;;;;;7.63;6.03;;;;;;;;;;5045382;28;20203;-50
2023/03/01 00:50:12;;;;;;;6.05;4.95;;;;;;;;;;5049048;28;20469;-50
2023/03/01 00:52:38;;;;;;;6.47;5.20;;;;;;;;;;5048198;28;20233;-50
2023/03/01 00:55:04;;;;;;;5.90;5.28;;;;;;;;;;5044619;28;20230;-50
2023/03/01 00:57:31;;;;;;;8.13;5.13;;;;;;;;;;5043901;28;20669;-50
2023/03/01 00:59:56;;;;;;;6.25;5.13;;;;;;;;;;5045910;28;20211;-51
2023/03/01 01:02:22;;;;;;;6.82;5.05;;;;;;;;;;5049970;28;20187;-50
2023/03/01 01:04:49;;;;;;;6.38;5.53;;;;;;;;;;5040144;28;20214;-50
2023/03/01 01:07:15;;;;;;;5.82;5.05;;;;;;;;;;5047399;28;20246;-50
2023/03/01 01:09:41;;;;;;;6.40;5.03;;;;;;;;;;5045002;28;20680;-50
2023/03/01 01:12:08;;;;;;;7.00;5.05;;;;;;;;;;5057583;28;20269;-50
2023/03/01 01:14:34;;;;;;;6.05;5.45;;;;;;;;;;5068944;28;20195;-50
2023/03/01 01:17:00;;;;;;;7.45;5.40;;;;;;;;;;5044189;28;20555;-50
2023/03/01 01:19:26;;;;;;;7.00;5.43;;;;;;;;;;5038701;28;20212;-50
2023/03/01 01:21:52;;;;;;;6.43;5.38;;;;;;;;;;5045831;28;20191;-50
2023/03/01 01:24:18;;;;;;;5.90;5.25;;;;;;;;;;5051554;28;20180;-50
2023/03/01 01:26:44;;;;;;;6.97;5.30;;;;;;;;;;5045128;28;20187;-50
2023/03/01 01:29:10;;;;;;;6.38;5.03;;;;;;;;;;5050771;28;20218;-50
2023/03/01 01:31:36;;;;;;;6.53;4.72;;;;;;;;;;5035997;28;20191;-50
2023/03/01 01:34:04;;;;;;;5.80;5.03;;;;;;;;;;5043043;28;20529;-50
2023/03/01 01:36:30;;;;;;;6.97;5.03;;;;;;;;;;5036206;28;20285;-50
2023/03/01 01:38:56;;;;;;;6.18;4.97;;;;;;;;;;5043262;28;20568;-49
2023/03/01 01:41:22;;;;;;;6.95;5.10;;;;;;;;;;5055309;28;20246;-50
2023/03/01 01:43:49;;;;;;;6.40;5.00;;;;;;;;;;5049045;28;20183;-50
2023/03/01 01:46:18;;;;;;;6.00;5.00;;;;;;;;;;5047289;28;20187;-50
2023/03/01 01:48:47;;;;;;;7.03;5.07;;;;;;;;;;5046265;28;20190;-50
2023/03/01 01:51:19;;;;;;;5.88;5.10;;;;;;;;;;5044768;28;20192;-50
2023/03/01 01:53:46;;;;;;;5.75;5.15;;;;;;;;;;5042397;28;20588;-50
2023/03/01 01:56:13;;;;;;;5.85;4.85;;;;;;;;;;5049035;28;20184;-50
2023/03/01 01:58:40;;;;;;;5.75;5.07;;;;;;;;;;5035841;28;20612;-50
2023/03/01 02:01:06;;;;;;;7.43;4.97;;;;;;;;;;5046400;28;20191;-50
2023/03/01 02:03:37;;;;;;;7.65;5.40;;;;;;;;;;5036997;28;20619;-50
2023/03/01 02:06:21;;;;;;;6.00;5.20;;;;;;;;;;5035845;28;20267;-50
2023/03/01 02:08:49;;;;;;;6.30;5.03;;;;;;;;;;5051944;28;20455;-50
2023/03/01 02:11:15;;;;;;;7.35;4.90;;;;;;;;;;5047964;28;20190;-50
2023/03/01 02:13:41;;;;;;;6.88;5.25;;;;;;;;;;5039571;28;20204;-50
2023/03/01 02:16:14;;;;;;;6.18;4.88;;;;;;;;;;5035541;28;20184;-50
2023/03/01 02:18:41;;;;;;;5.68;4.82;;;;;;;;;;5048134;28;20236;-50
2023/03/01 02:21:19;;;;;;;5.82;4.68;;;;;;;;;;5056390;28;20680;-50
2023/03/01 02:23:45;;;;;;;7.43;4.80;;;;;;;;;;5035778;28;20176;-50
2023/03/01 02:26:16;;;;;;;5.95;4.90;;;;;;;;;;5050917;28;20610;-50
2023/03/01 02:28:43;;;;;;;5.60;4.90;;;;;;;;;;5059760;28;20193;-50
2023/03/01 02:33:55;;;;;;;6.03;5.00;;;;;;;;;;5040363;28;20625;-50
2023/03/01 02:36:23;;;;;;;6.18;5.00;;;;;;;;;;5044616;28;20293;-50
2023/03/01 02:38:52;;;;;;;6.50;5.03;;;;;;;;;;5043628;28;20209;-50
2023/03/01 02:41:19;;;;;;;5.28;4.60;;;;;;;;;;5048969;28;20188;-50
2023/03/01 02:43:45;;;;;;;5.60;5.00;;;;;;;;;;5056211;28;20191;-50
2023/03/01 02:46:16;;;;;;;5.25;4.47;;;;;;;;;;5039674;28;20230;-50
2023/03/01 02:48:47;;;;;;;6.00;4.85;;;;;;;;;;5046550;28;20176;-50
2023/03/01 02:51:25;;;;;;;5.80;4.63;;;;;;;;;;5039376;28;20181;-50
2023/03/01 02:54:06;;;;;;;6.28;4.90;;;;;;;;;;5036967;28;20226;-50
2023/03/01 02:56:32;;;;;;;5.82;5.00;;;;;;;;;;5036250;28;20196;-50
2023/03/01 02:59:00;;;;;;;5.97;4.93;;;;;;;;;;5049959;28;20214;-51
2023/03/01 03:01:36;;;;;;;5.85;5.25;;;;;;;;;;5035308;28;20171;-50
2023/03/01 03:04:02;;;;;;;5.63;4.78;;;;;;;;;;5048515;28;20452;-50
2023/03/01 03:06:27;;;;;;;6.57;5.15;;;;;;;;;;5047439;28;20187;-50
2023/03/01 03:08:54;;;;;;;6.00;4.78;;;;;;;;;;5043232;28;20195;-51
2023/03/01 03:11:20;;;;;;;5.95;5.10;;;;;;;;;;5045162;28;20207;-50
2023/03/01 03:13:47;;;;;;;5.45;4.70;;;;;;;;;;5058817;28;20203;-50
2023/03/01 03:16:13;;;;;;;5.18;4.00;;;;;;;;;;5048302;28;20179;-50
2023/03/01 03:18:39;;;;;;;8.60;5.25;;;;;;;;;;5034138;28;20187;-50
2023/03/01 03:21:10;;;;;;;6.07;4.75;;;;;;;;;;5048738;28;20195;-50
2023/03/01 03:23:36;;;;;;;6.28;4.90;;;;;;;;;;5042090;28;20911;-50
2023/03/01 03:26:03;;;;;;;6.63;5.00;;;;;;;;;;5057267;28;20185;-51
2023/03/01 03:28:30;;;;;;;7.05;5.10;;;;;;;;;;5040360;28;20464;-50
2023/03/01 03:30:56;;;;;;;5.53;4.80;;;;;;;;;;5041841;28;20175;-50
2023/03/01 03:33:22;;;;;;;6.32;4.80;;;;;;;;;;5043942;28;20259;-49
2023/03/01 03:35:49;;;;;;;5.88;4.97;;;;;;;;;;5036410;28;20628;-50
2023/03/01 03:38:16;;;;;;;5.88;4.70;;;;;;;;;;5046735;28;20567;-50
2023/03/01 03:40:44;;;;;;;7.63;4.82;;;;;;;;;;5052508;28;20210;-50
2023/03/01 03:43:14;;;;;;;6.97;5.10;;;;;;;;;;5050553;28;20185;-50
2023/03/01 03:45:40;;;;;;;5.75;4.72;;;;;;;;;;5036287;28;20215;-50
2023/03/01 03:48:09;;;;;;;5.22;4.70;;;;;;;;;;5047921;28;20179;-50
2023/03/01 03:50:35;;;;;;;5.95;4.70;;;;;;;;;;5045179;28;20183;-50
2023/03/01 03:53:02;;;;;;;5.47;4.47;;;;;;;;;;5042749;28;20188;-50
2023/03/01 03:55:30;;;;;;;5.22;4.57;;;;;;;;;;5042533;28;20198;-50
2023/03/01 03:57:57;;;;;;;5.38;4.47;;;;;;;;;;5046080;28;20183;-50
2023/03/01 04:00:23;;;;;;;5.65;4.88;;;;;;;;;;5053449;28;20211;-50
2023/03/01 04:02:49;;;;;;;5.22;4.70;;;;;;;;;;5050333;28;20237;-50
2023/03/01 04:05:16;;;;;;;4.82;4.38;;;;;;;;;;5042045;28;20469;-50
2023/03/01 04:07:42;;;;;;;6.40;4.55;;;;;;;;;;5043307;28;20581;-50
2023/03/01 04:10:10;;;;;;;5.00;4.50;;;;;;;;;;5048891;28;20187;-50
2023/03/01 04:12:36;;;;;;;5.25;4.72;;;;;;;;;;5057919;28;20467;-50
2023/03/01 04:15:12;;;;;;;5.35;4.68;;;;;;;;;;5049896;28;20290;-50
2023/03/01 04:17:39;;;;;;;5.63;4.63;;;;;;;;;;5052826;28;20183;-50
2023/03/01 04:20:06;;;;;;;5.93;4.60;;;;;;;;;;5054967;28;20543;-50
2023/03/01 04:22:33;;;;;;;6.25;5.15;;;;;;;;;;5045572;28;20523;-50
2023/03/01 04:25:05;;;;;;;9.18;4.82;;;;;;;;;;5048233;28;20202;-50
2023/03/01 04:27:31;;;;;;;4.68;4.00;;;;;;;;;;5044460;28;20779;-50
2023/03/01 04:29:57;;;;;;;5.35;4.57;;;;;;;;;;5056491;28;20601;-50
2023/03/01 04:32:23;;;;;;;4.93;4.43;;;;;;;;;;5058196;28;20215;-50
2023/03/01 04:34:49;;;;;;;5.65;4.50;;;;;;;;;;5048196;28;20188;-50
2023/03/01 04:37:15;;;;;;;5.90;4.28;;;;;;;;;;5056907;28;20198;-50
2023/03/01 04:39:45;;;;;;;7.20;4.72;;;;;;;;;;5047500;28;20208;-50
2023/03/01 04:42:15;;;;;;;5.75;4.50;;;;;;;;;;5046085;28;20436;-50
2023/03/01 04:44:41;;;;;;;5.55;4.47;;;;;;;;;;5046354;28;20172;-50
2023/03/01 04:47:07;;;;;;;5.18;4.30;;;;;;;;;;5056485;28;20179;-50
2023/03/01 04:49:32;;;;;;;5.25;4.20;;;;;;;;;;5045722;28;20188;-50
2023/03/01 04:52:01;;;;;;;5.55;4.38;;;;;;;;;;5053303;28;20551;-50
2023/03/01 04:54:31;;;;;;;5.40;4.10;;;;;;;;;;5036560;28;20215;-50
2023/03/01 04:56:57;;;;;;;7.13;4.60;;;;;;;;;;5039653;28;20601;-50
2023/03/01 04:59:23;;;;;;;5.22;4.43;;;;;;;;;;5048886;28;20199;-50
2023/03/01 05:01:55;;;;;;;4.95;4.13;;;;;;;;;;5056687;28;20197;-50
2023/03/01 05:04:21;;;;;;;5.78;4.40;;;;;;;;;;5044611;28;20567;-50
2023/03/01 05:06:47;;;;;;;8.02;4.65;;;;;;;;;;5045713;28;20246;-50
2023/03/01 05:09:13;;;;;;;6.95;4.60;;;;;;;;;;5043260;28;20204;-50
2023/03/01 05:11:38;;;;;;;6.32;4.20;;;;;;;;;;5055003;28;20270;-50
2023/03/01 05:14:08;;;;;;;6.25;4.80;;;;;;;;;;5056353;28;20180;-50
2023/03/01 05:16:34;;;;;;;6.82;4.38;;;;;;;;;;5041641;28;20195;-50
2023/03/01 05:19:00;;;;;;;8.10;4.75;;;;;;;;;;5036509;28;20207;-51
2023/03/01 05:21:26;;;;;;;7.38;4.82;;;;;;;;;;5037267;28;20579;-50
2023/03/01 05:23:52;;;;;;;6.35;4.70;;;;;;;;;;5056140;28;20183;-50
2023/03/01 05:26:21;;;;;;;6.70;4.32;;;;;;;;;;5043172;28;20192;-50
2023/03/01 05:28:48;;;;;;;6.82;4.63;;;;;;;;;;5040624;28;20285;-50
2023/03/01 05:31:14;;;;;;;7.05;4.70;;;;;;;;;;5051784;28;20462;-50
2023/03/01 05:33:41;;;;;;;7.85;4.45;;;;;;;;;;5043919;28;20187;-50
2023/03/01 05:36:09;;;;;;;7.05;4.95;;;;;;;;;;5054570;28;20723;-50
2023/03/01 05:38:35;;;;;;;5.97;4.55;;;;;;;;;;5036930;28;20187;-50
2023/03/01 05:41:01;;;;;;;10.35;5.10;;;;;;;;;;5050821;28;20186;-50
2023/03/01 05:43:30;;;;;;;6.95;4.32;;;;;;;;;;5054246;28;20198;-50
2023/03/01 05:45:58;;;;;;;7.78;4.68;;;;;;;;;;5045242;28;20188;-50
2023/03/01 05:48:24;;;;;;;7.28;4.43;;;;;;;;;;5042886;28;20179;-50
2023/03/01 05:50:50;;;;;;;7.95;4.40;;;;;;;;;;5037155;28;20183;-50
2023/03/01 05:53:19;;;;;;;6.78;5.10;;;;;;;;;;5052347;28;20206;-50
2023/03/01 05:55:47;;;;;;;6.55;4.45;;;;;;;;;;5038798;28;20344;-50
2023/03/01 05:58:14;;;;;;;7.00;4.78;;;;;;;;;;5052897;28;20485;-50
2023/03/01 06:00:40;;;;;;;6.80;4.55;;;;;;;;;;5047504;28;20235;-50
2023/03/01 06:03:06;;;;;;;6.47;4.22;;;;;;;;;;5048675;28;20259;-50
2023/03/01 06:05:32;;;;;;;6.00;4.07;;;;;;;;;;5048548;28;20273;-50
2023/03/01 06:08:01;;;;;;;7.85;5.03;;;;;;;;;;5050257;28;20518;-50
2023/03/01 06:10:28;;;;;;;7.03;4.65;;;;;;;;;;5037860;28;20199;-50
2023/03/01 06:12:54;;;;;;;5.65;4.95;;;;;;;;;;5067185;28;20209;-50
2023/03/01 06:15:19;;;;;;;7.50;4.68;;;;;;;;;;5059394;28;20448;-50
2023/03/01 06:17:46;;;;;;;6.15;4.50;;;;;;;;;;5050161;28;20553;-50
2023/03/01 06:20:17;;;;;;;7.50;4.97;;;;;;;;;;5038439;28;20208;-50
2023/03/01 06:22:43;;;;;;;6.93;4.50;;;;;;;;;;5060548;28;20182;-50
2023/03/01 06:25:10;;;;;;;6.70;4.70;;;;;;;;;;5048954;28;20176;-50
2023/03/01 06:27:36;;;;;;;6.40;4.47;;;;;;;;;;5045489;28;20187;-50
2023/03/01 06:30:02;;;;;;;5.85;4.55;;;;;;;;;;5040089;28;20394;-50
2023/03/01 06:32:28;;;;;;;8.40;4.80;;;;;;;;;;5049992;28;20186;-50
2023/03/01 06:34:54;;;;;;;6.00;4.43;;;;;;;;;;5047695;28;20187;-50
2023/03/01 06:37:20;;;;;;;6.60;4.63;;;;;;;;;;5049005;28;20441;-50
2023/03/01 06:39:46;;;;;;;4.53;4.03;;;;;;;;;;5036501;28;20554;-50
2023/03/01 06:42:11;;;;;;;5.65;4.82;;;;;;;;;;5045412;28;20191;-50
2023/03/01 06:44:38;;;;;;;5.82;4.40;;;;;;;;;;5039503;28;20273;-50
2023/03/01 06:47:04;;;;;;;6.10;5.00;;;;;;;;;;5052671;28;22247;-50
2023/03/01 06:49:30;;;;;;;6.10;4.65;;;;;;;;;;5041576;28;20574;-50
2023/03/01 06:51:56;;;;;;;7.13;4.53;;;;;;;;;;5038437;28;20179;-50
2023/03/01 06:54:22;;;;;;;7.07;4.65;;;;;;;;;;5051180;28;20192;-50
2023/03/01 06:56:49;;;;;;;6.07;4.55;;;;;;;;;;5051211;28;20249;-50
2023/03/01 06:59:15;;;;;;;6.38;4.63;;;;;;;;;;5041190;28;20241;-50
2023/03/01 07:01:41;;;;;;;9.13;4.50;;;;;;;;;;5041092;28;20188;-50
2023/03/01 07:04:07;;;;;;;6.07;4.57;;;;;;;;;;5051760;28;20281;-50
2023/03/01 07:06:32;;;;;;;8.68;4.90;;;;;;;;;;5047901;28;20202;-50
2023/03/01 07:08:58;;;;;;;7.55;5.38;;;;;;;;;;5042776;28;20201;-50
2023/03/01 07:11:24;;;;;;;6.88;4.63;;;;;;;;;;5051669;28;20546;-50
2023/03/01 07:13:50;;;;;;;7.57;5.28;;;;;;;;;;5063736;28;20186;-50
2023/03/01 07:16:16;;;;;;;6.50;4.97;;;;;;;;;;5053449;28;20186;-50
2023/03/01 07:18:42;;;;;;;7.30;5.28;;;;;;;;;;5045326;28;20262;-50
2023/03/01 07:21:09;;;;;;;8.52;5.03;;;;;;;;;;5038528;28;20190;-50
2023/03/01 07:23:35;;;;;;;6.55;5.05;;;;;;;;;;5043366;28;20222;-50
2023/03/01 07:26:01;;;;;;;5.85;4.38;;;;;;;;;;5037788;28;20180;-51
2023/03/01 07:28:27;;;;;;;5.75;4.65;;;;;;;;;;5051511;28;20194;-50
2023/03/01 07:30:53;;;;;;;5.82;4.35;;;;;;;;;;5063951;28;20190;-50
2023/03/01 07:33:19;;;;;;;6.97;4.90;;;;;;;;;;5044940;28;20179;-50
2023/03/01 07:35:45;;;;;;;8.05;4.90;;;;;;;;;;5054257;28;20206;-50
2023/03/01 07:38:11;;;;;;;6.32;4.65;;;;;;;;;;5055064;28;20192;-50
2023/03/01 07:40:37;;;;;;;7.10;5.00;;;;;;;;;;5055450;28;20218;-50
2023/03/01 07:43:03;;;;;;;6.07;4.90;;;;;;;;;;5061603;28;20189;-50
2023/03/01 07:45:29;;;;;;;6.55;4.70;;;;;;;;;;5051688;28;20186;-50
2023/03/01 07:47:55;;;;;;;5.28;4.30;;;;;;;;;;5049745;28;20264;-50
2023/03/01 07:50:22;;;;;;;6.82;4.97;;;;;;;;;;5057686;28;20574;-50
2023/03/01 07:52:49;;;;;;;7.78;4.72;;;;;;;;;;5057251;28;20179;-50
2023/03/01 07:55:15;;;;;;;5.07;4.55;;;;;;;;;;5057540;28;20257;-50
2023/03/01 07:57:41;;;;;;;5.40;4.78;;;;;;;;;;5049791;28;20258;-50
2023/03/01 08:00:11;;;;;;;5.35;4.60;;;;;;;;;;5060645;28;20637;-50
2023/03/01 08:02:37;;;;;;;5.90;4.10;;;;;;;;;;5059703;28;20243;-50
2023/03/01 08:05:03;;;;;;;6.82;5.10;;;;;;;;;;5041467;28;20694;-50
2023/03/01 08:07:29;;;;;;;5.80;4.85;;;;;;;;;;5049759;28;20215;-50
2023/03/01 08:09:55;;;;;;;6.00;4.68;;;;;;;;;;5042676;28;20210;-50
2023/03/01 08:12:20;;;;;;;5.15;4.30;;;;;;;;;;5073787;28;20193;-50
2023/03/01 08:14:46;;;;;;;6.38;5.03;;;;;;;;;;5060574;28;20191;-50
2023/03/01 08:17:14;;;;;;;6.63;4.80;;;;;;;;;;5037789;28;20512;-50
2023/03/01 08:19:40;;;;;;;6.50;5.05;;;;;;;;;;5043398;28;20204;-49
2023/03/01 08:22:06;;;;;;;6.03;4.68;;;;;;;;;;5045265;28;20190;-50
2023/03/01 08:24:32;;;;;;;6.05;4.53;;;;;;;;;;5054199;28;20194;-50
2023/03/01 08:26:57;;;;;;;5.55;4.45;;;;;;;;;;5037822;28;20211;-50
2023/03/01 08:29:26;;;;;;;5.72;4.90;;;;;;;;;;5037530;28;20219;-50
2023/03/01 08:31:52;;;;;;;5.47;4.80;;;;;;;;;;5046471;28;20608;-49
2023/03/01 08:34:19;;;;;;;5.28;4.40;;;;;;;;;;5046390;28;20262;-50
2023/03/01 08:36:46;;;;;;;5.63;4.63;;;;;;;;;;5045145;28;20179;-50
2023/03/01 08:39:13;;;;;;;6.93;4.75;;;;;;;;;;5043345;28;20207;-50
2023/03/01 08:41:40;;;;;;;5.30;4.80;;;;;;;;;;5046308;28;20233;-50
2023/03/01 08:44:06;;;;;;;6.63;4.53;;;;;;;;;;5066474;28;20187;-50
2023/03/01 08:46:33;;;;;;;6.38;4.50;;;;;;;;;;5041172;28;20184;-50
2023/03/01 08:48:59;;;;;;;6.05;4.57;;;;;;;;;;5037002;28;20584;-50
2023/03/01 08:51:26;;;;;;;6.15;4.55;;;;;;;;;;5045452;28;20187;-50
2023/03/01 08:53:52;;;;;;;5.57;4.60;;;;;;;;;;5045324;28;20168;-50
2023/03/01 08:56:19;;;;;;;5.70;5.05;;;;;;;;;;5055194;28;20275;-50
2023/03/01 08:58:46;;;;;;;5.78;4.68;;;;;;;;;;5056732;28;20182;-51
2023/03/01 09:01:12;;;;;;;7.30;5.00;;;;;;;;;;5048650;28;20252;-50
2023/03/01 09:03:38;;;;;;;5.28;4.10;;;;;;;;;;5047579;28;20179;-50
2023/03/01 09:06:05;;;;;;;5.45;4.50;;;;;;;;;;5040638;28;20183;-50
2023/03/01 09:08:34;;;;;;;5.30;4.07;;;;;;;;;;5036426;28;20183;-50
2023/03/01 09:11:02;;;;;;;6.30;4.70;;;;;;;;;;5045362;28;20195;-50
2023/03/01 09:13:30;;;;;;;5.93;4.78;;;;;;;;;;5056446;28;20206;-50
2023/03/01 09:15:56;;;;;;;4.55;3.92;;;;;;;;;;5045655;28;20214;-50
2023/03/01 09:18:22;;;;;;;4.70;4.10;;;;;;;;;;5047937;28;20206;-50
2023/03/01 09:20:48;;;;;;;5.05;4.40;;;;;;;;;;5054692;28;20281;-50
2023/03/01 09:23:14;;;;;;;5.32;4.47;;;;;;;;;;5039771;28;20183;-50
2023/03/01 09:25:40;;;;;;;4.95;4.00;;;;;;;;;;5042790;28;20267;-50
2023/03/01 09:28:06;;;;;;;4.10;3.70;;;;;;;;;;5044078;28;20180;-50
2023/03/01 09:30:32;;;;;;;5.60;3.90;;;;;;;;;;5041485;28;20222;-50
2023/03/01 09:32:58;;;;;;;4.72;4.18;;;;;;;;;;5041430;28;20191;-50
2023/03/01 09:35:24;;;;;;;5.32;4.00;;;;;;;;;;5063206;28;20458;-50
2023/03/01 09:37:50;;;;;;;5.38;4.40;;;;;;;;;;5038363;28;20574;-50
2023/03/01 09:40:18;;;;;;;5.40;4.03;;;;;;;;;;5048413;28;20545;-50
2023/03/01 09:43:06;;;;;;;5.25;4.30;;;;;;;;;;5071646;28;20249;-50
2023/03/01 09:45:37;;;;;;;5.70;4.13;;;;;;;;;;5044572;28;20198;-50
2023/03/01 09:48:04;;;;;;;4.10;3.40;;;;;;;;;;5054515;28;20455;-50
2023/03/01 09:50:35;;;;;;;6.88;3.88;;;;;;;;;;5046679;28;20195;-49
2023/03/01 09:53:03;;;;;;;5.28;4.25;;;;;;;;;;5040115;28;20202;-50
2023/03/01 09:55:31;;;;;;;4.00;3.60;;;;;;;;;;5050180;28;20261;-50
2023/03/01 09:58:02;;;;;;;5.22;4.28;;;;;;;;;;5043782;28;20277;-50
2023/03/01 10:00:43;;;;;;;4.30;3.90;;;;;;;;;;5050306;28;20236;-50
2023/03/01 10:03:12;;;;;;;4.93;3.88;;;;;;;;;;5047369;28;20178;-50
2023/03/01 10:05:50;;;;;;;5.22;3.78;;;;;;;;;;5046657;28;20183;-50
2023/03/01 10:08:36;;;;;;;4.68;3.85;;;;;;;;;;5048602;28;20348;-50
2023/03/01 10:11:03;;;;;;;4.25;3.80;;;;;;;;;;5047886;28;20285;-50
2023/03/01 10:13:48;;;;;;;4.70;3.47;;;;;;;;;;5061053;28;20181;-50
2023/03/01 10:16:17;;;;;;;4.45;3.90;;;;;;;;;;5044054;28;20706;-50
2023/03/01 10:18:46;;;;;;;4.15;3.60;;;;;;;;;;5038838;28;20195;-50
2023/03/01 10:21:17;;;;;;;4.88;3.63;;;;;;;;;;5045006;28;20588;-50
2023/03/01 10:23:43;;;;;;;4.28;3.88;;;;;;;;;;5043349;28;20250;-50
2023/03/01 10:26:14;;;;;;;4.38;3.83;;;;;;;;;;5061772;28;20186;-50
2023/03/01 10:28:59;;;;;;;4.05;3.65;;;;;;;;;;5050100;28;20222;-50
2023/03/01 10:31:28;;;;;;;3.67;3.20;;;;;;;;;;5043409;28;20562;-49
2023/03/01 10:33:56;;;;;;;4.45;3.67;;;;;;;;;;5044525;28;20187;-50
2023/03/01 10:36:22;;;;;;;4.10;3.65;;;;;;;;;;5063649;28;20562;-50
2023/03/01 10:38:58;;;;;;;4.35;3.70;;;;;;;;;;5044167;28;20179;-50
2023/03/01 10:41:25;;;;;;;4.20;3.55;;;;;;;;;;5056437;28;20433;-50
2023/03/01 10:43:55;;;;;;;3.95;3.55;;;;;;;;;;5048495;28;20179;-50
2023/03/01 10:46:24;;;;;;;3.95;3.53;;;;;;;;;;5044252;28;20186;-50
2023/03/01 10:49:09;;;;;;;3.47;3.17;;;;;;;;;;5054170;28;20182;-50
2023/03/01 10:51:35;;;;;;;4.20;3.72;;;;;;;;;;5056663;28;20228;-50
2023/03/01 10:54:02;;;;;;;4.30;3.58;;;;;;;;;;5046899;28;20470;-50
2023/03/01 10:56:27;;;;;;;4.30;3.45;;;;;;;;;;5048159;28;20190;-50
2023/03/01 10:59:02;;;;;;;4.00;3.53;;;;;;;;;;5036319;28;20203;-50
2023/03/01 11:01:29;;;;;;;4.32;3.33;;;;;;;;;;5041815;28;20185;-50
2023/03/01 11:04:07;;;;;;;4.28;3.67;;;;;;;;;;5040747;28;20179;-50
2023/03/01 11:06:37;;;;;;;4.43;3.60;;;;;;;;;;5048232;28;20252;-50
2023/03/01 11:09:20;;;;;;;3.80;3.22;;;;;;;;;;5042739;28;20178;-50
2023/03/01 11:11:46;;;;;;;3.70;3.25;;;;;;;;;;5053643;28;20258;-50
2023/03/01 11:14:22;;;;;;;3.70;3.40;;;;;;;;;;5050799;28;20258;-50
2023/03/01 11:16:48;;;;;;;4.45;3.70;;;;;;;;;;5051161;28;20178;-50
2023/03/01 11:19:20;;;;;;;4.55;3.47;;;;;;;;;;5044524;28;20460;-50
2023/03/01 11:21:57;;;;;;;4.80;3.40;;;;;;;;;;5046161;28;20191;-50
2023/03/01 11:24:31;;;;;;;3.75;3.30;;;;;;;;;;5043399;28;20180;-50
2023/03/01 11:27:01;;;;;;;3.38;3.08;;;;;;;;;;5036033;28;20454;-50
2023/03/01 11:29:27;;;;;;;4.97;3.47;;;;;;;;;;5044719;28;20229;-49
2023/03/01 11:31:54;;;;;;;4.60;3.10;;;;;;;;;;5055079;28;20179;-49
2023/03/01 11:34:21;;;;;;;3.70;3.25;;;;;;;;;;5046826;28;20223;-49
2023/03/01 11:36:59;;;;;;;4.00;3.58;;;;;;;;;;5042818;28;20198;-50
2023/03/01 11:39:33;;;;;;;3.95;3.33;;;;;;;;;;5036412;28;20206;-50
2023/03/01 11:42:11;;;;;;;3.50;3.15;;;;;;;;;;5059992;28;20183;-50
2023/03/01 11:44:38;;;;;;;3.40;3.03;;;;;;;;;;5046267;28;20245;-50
2023/03/01 11:47:14;;;;;;;3.58;3.20;;;;;;;;;;5039594;28;20190;-50
2023/03/01 11:50:00;;;;;;;3.92;3.40;;;;;;;;;;5049606;28;20252;-50
2023/03/01 11:52:33;;;;;;;3.70;3.40;;;;;;;;;;5043677;28;20266;-50
2023/03/01 11:55:21;;;;;;;4.00;3.50;;;;;;;;;;5043322;28;20180;-50
2023/03/01 11:57:57;;;;;;;3.38;3.08;;;;;;;;;;5047343;28;20187;-50
2023/03/01 12:00:38;;;;;;;4.20;3.28;;;;;;;;;;5039579;28;20215;-50
2023/03/01 12:03:17;;;;;;;4.93;3.80;;;;;;;;;;5036440;28;20214;-50
2023/03/01 12:06:03;;;;;;;3.38;3.03;;;;;;;;;;5041987;28;20182;-50
2023/03/01 12:08:36;;;;;;;3.85;3.40;;;;;;;;;;5038077;28;20190;-50
2023/03/01 12:11:16;;;;;;;4.22;3.10;;;;;;;;;;5044982;28;20186;-50
2023/03/01 12:13:51;;;;;;;3.90;2.97;;;;;;;;;;5066690;28;20190;-50
2023/03/01 12:16:25;;;;;;;3.28;2.97;;;;;;;;;;5050649;28;20233;-50
2023/03/01 12:18:58;;;;;;;4.30;3.20;;;;;;;;;;5037902;28;20187;-50
2023/03/01 12:21:41;;;;;;;3.30;2.90;;;;;;;;;;5049751;28;20220;-50
2023/03/01 12:24:10;;;;;;;3.25;2.92;;;;;;;;;;5045805;28;20228;-50
2023/03/01 12:26:39;;;;;;;4.38;3.50;;;;;;;;;;5043896;28;20188;-50
2023/03/01 12:29:23;;;;;;;3.42;2.85;;;;;;;;;;5047921;28;20219;-50
2023/03/01 12:31:49;;;;;;;3.65;3.03;;;;;;;;;;5049607;28;20179;-50
2023/03/01 12:34:15;;;;;;;3.60;2.90;;;;;;;;;;5053244;28;20496;-50
2023/03/01 12:37:04;;;;;;;3.53;3.10;;;;;;;;;;5060020;28;20183;-50
2023/03/01 12:39:40;;;;;;;3.95;3.55;;;;;;;;;;5066598;28;20229;-50
2023/03/01 12:42:09;;;;;;;3.60;2.95;;;;;;;;;;5073294;28;20197;-50
2023/03/01 12:44:41;;;;;;;3.80;3.00;;;;;;;;;;5047249;28;20184;-50
2023/03/01 12:47:14;;;;;;;2.78;2.50;;;;;;;;;;5057950;28;20585;-50
2023/03/01 12:49:42;;;;;;;3.13;2.85;;;;;;;;;;5063150;28;20200;-50
2023/03/01 12:52:18;;;;;;;4.15;3.15;;;;;;;;;;5057844;28;20257;-50
2023/03/01 12:54:45;;;;;;;3.17;2.88;;;;;;;;;;5053667;28;20530;-50
2023/03/01 12:57:17;;;;;;;3.47;3.13;;;;;;;;;;5042444;28;20503;-50
2023/03/01 12:59:51;;;;;;;3.67;3.03;;;;;;;;;;5055825;28;20489;-50
2023/03/01 13:02:27;;;;;;;3.40;2.75;;;;;;;;;;5055267;28;20218;-50
2023/03/01 13:05:28;;;;;;;3.78;2.92;;;;;;;;;;5043676;28;20183;-50
2023/03/01 13:07:54;;;;;;;3.40;3.10;;;;;;;;;;5015772;28;20195;-50
2023/03/01 13:10:34;;;;;;;3.80;3.08;;;;;;;;;;5036133;28;20199;-50
2023/03/01 13:13:11;;;;;;;3.13;2.72;;;;;;;;;;5064880;28;20179;-50
2023/03/01 13:15:39;;;;;;;3.35;3.05;;;;;;;;;;5061961;28;20439;-50
2023/03/01 13:18:25;;;;;;;3.60;2.88;;;;;;;;;;5057007;28;20190;-50
2023/03/01 13:20:52;;;;;;;3.65;2.90;;;;;;;;;;5048257;28;20590;-50
2023/03/01 13:23:21;;;;;;;3.20;2.90;;;;;;;;;;5040299;28;20202;-50
2023/03/01 13:25:59;;;;;;;3.45;2.95;;;;;;;;;;5061922;28;20269;-50
2023/03/01 13:28:34;;;;;;;3.22;2.80;;;;;;;;;;5042369;28;20183;-50
2023/03/01 13:31:01;;;;;;;2.85;2.60;;;;;;;;;;5056161;28;20500;-48
2023/03/01 13:33:26;;;;;;;2.95;2.70;;;;;;;;;;5048154;28;20187;-48
2023/03/01 13:35:53;;;;;;;3.15;2.88;;;;;;;;;;5051175;28;20269;-48
2023/03/01 13:38:40;;;;;;;3.38;3.08;;;;;;;;;;5051017;28;20190;-48
2023/03/01 13:41:06;;;;;;;3.15;2.85;;;;;;;;;;5065321;28;20218;-48
2023/03/01 13:43:34;;;;;;;3.30;3.00;;;;;;;;;;5062069;28;20182;-48
2023/03/01 13:46:02;;;;;;;3.08;2.70;;;;;;;;;;5063769;28;20179;-48
2023/03/01 13:48:29;;;;;;;3.17;2.72;;;;;;;;;;5055889;28;20607;-48
2023/03/01 13:50:58;;;;;;;3.58;3.13;;;;;;;;;;5057847;28;20184;-48
2023/03/01 13:53:26;;;;;;;3.22;2.90;;;;;;;;;;5059729;28;20187;-48
2023/03/01 13:55:55;;;;;;;3.08;2.65;;;;;;;;;;5047828;28;20199;-48
2023/03/01 13:58:21;;;;;;;3.50;3.10;;;;;;;;;;5055326;28;20187;-48
2023/03/01 14:00:47;;;;;;;4.00;2.83;;;;;;;;;;5066604;28;20203;-48
2023/03/01 14:03:20;;;;;;;3.67;2.90;;;;;;;;;;5048654;28;20178;-48
2023/03/01 14:06:01;;;;;;;3.35;2.90;;;;;;;;;;5066392;28;20743;-48
2023/03/01 14:08:28;;;;;;;2.80;2.60;;;;;;;;;;5056519;28;20194;-48
2023/03/01 14:10:59;;;;;;;3.22;2.83;;;;;;;;;;5057930;28;20188;-48
2023/03/01 14:13:25;;;;;;;3.95;3.00;;;;;;;;;;5066225;28;20565;-48
2023/03/01 14:16:05;;;;;;;3.13;2.83;;;;;;;;;;5056002;28;20268;-48
2023/03/01 14:18:38;;;;;;;3.58;2.97;;;;;;;;;;5047226;28;20612;-48
2023/03/01 14:21:08;;;;;;;2.70;2.50;;;;;;;;;;5050597;28;20293;-50
2023/03/01 14:23:36;;;;;;;3.40;3.03;;;;;;;;;;5061716;28;20242;-50
2023/03/01 14:26:02;;;;;;;3.33;3.03;;;;;;;;;;5047586;28;20178;-50
2023/03/01 14:28:29;;;;;;;3.60;3.13;;;;;;;;;;5058833;28;20194;-48
2023/03/01 14:30:56;;;;;;;3.28;2.92;;;;;;;;;;5067337;28;20183;-49
2023/03/01 14:33:22;;;;;;;3.38;3.08;;;;;;;;;;5055216;28;20193;-48
2023/03/01 14:35:58;;;;;;;3.15;2.85;;;;;;;;;;5047899;28;20569;-48
2023/03/01 14:38:30;;;;;;;3.50;3.10;;;;;;;;;;5040962;28;20195;-48
2023/03/01 14:40:58;;;;;;;3.10;2.80;;;;;;;;;;5066215;28;20211;-48
2023/03/01 14:43:26;;;;;;;3.28;2.80;;;;;;;;;;5066800;28;20439;-48
2023/03/01 14:45:52;;;;;;;4.97;3.17;;;;;;;;;;5055808;28;20214;-48
2023/03/01 14:48:18;;;;;;;3.85;2.80;;;;;;;;;;5055384;28;20194;-48
2023/03/01 14:50:45;;;;;;;3.28;2.90;;;;;;;;;;5066391;28;20179;-50
2023/03/01 14:53:19;;;;;;;3.60;3.03;;;;;;;;;;5040752;28;20184;-50
2023/03/01 14:55:46;;;;;;;3.83;2.88;;;;;;;;;;5042114;28;20206;-50